Latest Weather Observations for Cato Island

IDQ60801

Issued at 8:32 pm EST Wednesday 29 June 2016 (issued every 30 minutes, with the page automatically refreshed every 10 minutes)

About weather observations | Map of weather stations | Latest weather observations for QLD | Other Formats
Station Details ID: 200601 Name: CATO ISLAND Lat: -23.25 Lon: 155.54 Height: 6.3 m
Data from the previous 72 hours. | See also: Recent months for locations in Queensland
Date/Time
EST
Temp
°C
App
Temp
°C
Dew
Point
°C
Rel
Hum
%
Delta-T
°C
Wind Press
QNH
hPa
Press
MSL
hPa
Rain since
9am
mm
Dir  Spd
km/h
Gust
km/h
Spd
kts
Gust
kts
29/08:30pm 22.1 - - - - SSE 39 44 21 24 1022.0 - -
29/08:00pm 21.9 - - - - SSE 41 48 22 26 1022.0 1021.9 -
29/07:30pm 22.0 - - - - SSE 41 48 22 26 1021.8 - -
29/07:00pm 22.0 - - - - SSE 39 44 21 24 1021.5 1021.5 -
29/06:30pm 22.0 - - - - SSE 39 44 21 24 1021.3 - -
29/06:00pm 21.9 - - - - SSE 41 46 22 25 1021.1 1021.1 -
29/05:30pm 21.7 - - - - SSE 41 48 22 26 1020.9 - -
29/05:00pm 22.0 - - - - SSE 41 46 22 25 1020.7 1020.7 -
29/04:30pm 21.9 - - - - SSE 41 50 22 27 1020.3 - -
29/04:00pm 21.9 - - - - SSE 43 50 23 27 1019.9 1020.0 -
29/03:30pm 22.0 - - - - SSE 41 50 22 27 1019.6 - -
29/03:00pm 22.4 - - - - SSE 41 50 22 27 1019.4 1019.5 -
29/02:30pm 22.0 - - - - SSE 43 48 23 26 1019.4 - -
29/02:00pm 22.2 - - - - SSE 41 46 22 25 1019.5 1019.5 -
29/01:30pm 22.3 - - - - SSE 39 44 21 24 1019.7 - -
29/01:00pm 22.2 - - - - SSE 39 44 21 24 1020.1 1020.1 -
29/12:30pm 22.0 - - - - SSE 37 43 20 23 1020.4 - -
29/12:00pm 22.4 - - - - SSE 41 46 22 25 1020.8 1020.7 -
29/11:30am 22.2 - - - - S 37 44 20 24 1021.2 - -
29/11:00am 22.3 - - - - S 39 44 21 24 1021.5 1021.4 -
29/10:30am 22.4 - - - - S 41 48 22 26 1021.5 - -
29/10:00am 22.2 - - - - S 43 48 23 26 1021.6 1021.6 -
29/09:30am 21.9 - - - - S 43 50 23 27 1021.7 - -
29/09:00am 21.9 - - - - S 43 50 23 27 1021.8 1021.8 -
29/08:30am 22.0 - - - - S 41 48 22 26 1021.7 - -
29/08:00am 21.8 - - - - SSE 43 48 23 26 1021.6 1021.6 -
29/07:30am 21.6 - - - - S 41 50 22 27 1021.4 - -
29/07:00am 21.6 - - - - S 43 50 23 27 1021.2 1021.3 -
29/06:30am 21.7 - - - - S 43 48 23 26 1021.0 - -
29/06:00am 20.9 - - - - S 35 43 19 23 1020.9 1020.9 -
29/05:30am 21.0 - - - - S 39 46 21 25 1020.8 - -
29/05:00am 21.0 - - - - S 44 54 24 29 1020.4 1020.4 -
29/04:30am 20.4 - - - - S 46 61 25 33 1020.2 - -
29/04:00am 21.0 - - - - S 43 52 23 28 1020.1 1020.2 -
29/03:30am 21.2 - - - - S 39 46 21 25 1020.0 - -
29/03:00am 21.2 - - - - S 37 46 20 25 1019.8 1019.9 -
29/02:30am 21.4 - - - - S 35 46 19 25 1020.0 - -
29/02:00am 21.2 - - - - S 33 43 18 23 1020.2 1020.2 -
29/01:30am 20.9 - - - - S 32 41 17 22 1020.5 - -
29/01:00am 20.4 - - - - S 32 39 17 21 1020.8 1020.8 -
29/12:30am 20.5 - - - - S 32 39 17 21 1021.0 - -
29/12:00am 20.4 - - - - S 32 43 17 23 1021.0 1021.0 -
 
Date/Time
EST
Temp
°C
App
Temp
°C
Dew
Point
°C
Rel
Hum
%
Delta-T
°C
Wind Press
QNH
hPa
Press
MSL
hPa
Rain since
9am
mm
Dir  Spd
km/h
Gust
km/h
Spd
kts
Gust
kts
28/11:30pm 20.4 - - - - S 33 43 18 23 1021.1 - -
28/11:00pm 20.1 - - - - S 33 41 18 22 1021.0 1021.0 -
28/10:30pm 20.4 - - - - S 33 43 18 23 1021.1 - -
28/10:00pm 19.6 - - - - S 30 39 16 21 1021.3 1021.3 -
28/09:30pm 19.6 - - - - S 33 46 18 25 1021.3 - -
28/09:00pm 19.4 - - - - S 39 48 21 26 1021.3 1021.3 -
28/08:30pm 18.8 - - - - S 39 50 21 27 1021.3 - -
28/08:00pm 18.9 - - - - S 37 44 20 24 1021.4 1021.4 -
28/07:30pm 19.1 - - - - S 35 44 19 24 1021.0 - -
28/07:00pm 18.7 - - - - SSW 37 50 20 27 1020.8 1020.8 -
28/06:30pm 18.8 - - - - SSW 35 44 19 24 1020.3 - -
28/06:00pm 18.6 - - - - SSW 32 41 17 22 1019.8 1019.9 -
28/05:30pm 18.9 - - - - SSW 35 43 19 23 1019.3 - -
28/05:00pm 18.6 - - - - SSW 32 39 17 21 1019.2 1019.2 -
28/04:30pm 18.7 - - - - SSW 28 41 15 22 1018.7 - -
28/04:00pm 18.8 - - - - SSW 30 41 16 22 1018.4 1018.4 -
28/03:30pm 18.9 - - - - SSW 28 35 15 19 1018.1 - -
28/03:00pm 19.0 - - - - SSW 28 35 15 19 1017.9 1017.9 -
28/02:30pm 19.4 - - - - SSW 32 41 17 22 1017.6 - -
28/02:00pm 19.6 - - - - SSW 28 35 15 19 1017.5 1017.5 -
28/01:30pm 20.1 - - - - SSW 32 41 17 22 1017.4 - -
28/01:00pm 20.3 - - - - SSW 32 37 17 20 1017.6 1017.6 -
28/12:30pm 19.7 - - - - SSW 30 39 16 21 1017.8 - -
28/12:00pm 20.3 - - - - SSW 32 37 17 20 1018.1 1018.1 -
28/11:30am 19.9 - - - - SSW 30 41 16 22 1018.5 - -
28/11:00am 19.9 - - - - SSW 33 41 18 22 1018.8 1018.8 -
28/10:30am 19.5 - - - - S 32 43 17 23 1018.9 - -
28/10:00am 19.7 - - - - S 35 41 19 22 1019.1 1019.1 -
28/09:30am 19.4 - - - - S 39 48 21 26 1019.2 - -
28/09:00am 19.9 - - - - S 35 43 19 23 1019.1 1019.1 -
28/08:30am 19.7 - - - - SSW 33 39 18 21 1019.0 - -
28/08:00am 19.5 - - - - SSW 35 41 19 22 1018.7 1018.7 -
28/07:30am 19.6 - - - - SSW 35 46 19 25 1018.5 - -
28/07:00am 19.2 - - - - SSW 35 41 19 22 1017.9 1017.9 -
28/06:30am 18.9 - - - - SW 37 43 20 23 1017.6 - -
28/06:00am 18.9 - - - - SW 39 46 21 25 1017.3 1017.2 -
28/05:30am 18.9 - - - - SW 39 48 21 26 1017.3 - -
28/05:00am 19.7 - - - - SW 37 46 20 25 1017.0 1017.0 -
28/04:30am 19.5 - - - - SW 39 46 21 25 1016.8 - -
28/04:00am 20.1 - - - - SSW 41 50 22 27 1016.6 1016.6 -
28/03:30am 20.3 - - - - SW 44 50 24 27 1016.4 - -
28/03:00am 20.5 - - - - SW 44 52 24 28 1016.2 1016.2 -
28/02:30am 20.9 - - - - SW 44 50 24 27 1016.2 - -
28/02:00am 21.5 - - - - SW 44 52 24 28 1015.9 1015.9 -
28/01:30am 21.6 - - - - SW 43 50 23 27 1015.9 - -
28/01:00am 22.0 - - - - SSW 44 50 24 27 1015.8 1015.8 -
28/12:30am 22.2 - - - - SW 37 44 20 24 1015.8 - -
28/12:00am 22.3 - - - - SW 39 46 21 25 1015.8 1015.8 -
 
Date/Time
EST
Temp
°C
App
Temp
°C
Dew
Point
°C
Rel
Hum
%
Delta-T
°C
Wind Press
QNH
hPa
Press
MSL
hPa
Rain since
9am
mm
Dir  Spd
km/h
Gust
km/h
Spd
kts
Gust
kts
27/11:30pm 22.6 - - - - SW 33 37 18 20 1015.8 - -
27/11:00pm 22.1 - - - - SW 28 35 15 19 1015.7 1015.7 -
27/10:30pm 21.8 - - - - SW 28 33 15 18 1015.8 - -
27/10:00pm 21.6 - - - - SW 26 30 14 16 1015.8 1015.8 -
27/09:30pm 21.3 - - - - SW 28 32 15 17 1015.8 - -
27/09:00pm 21.4 - - - - SW 35 43 19 23 1015.8 1015.7 -
27/08:30pm 21.5 - - - - SW 39 46 21 25 1015.5 - -
27/08:20pm 21.8 - - - - SW 41 50 22 27 1015.5 - -
27/08:07pm 22.9 - - - - WSW 43 54 23 29 1015.2 - -
27/08:05pm 23.6 - - - - NW 28 54 15 29 1015.3 - -
27/08:00pm 24.3 - - - - NW 26 30 14 16 1015.1 1015.1 -
27/07:30pm 24.2 - - - - NW 28 32 15 17 1015.2 - -
27/07:00pm 24.0 - - - - WNW 28 30 15 16 1015.1 1015.1 -
27/06:30pm 23.8 - - - - NW 28 32 15 17 1015.0 - -
27/06:00pm 23.9 - - - - NW 33 39 18 21 1014.7 1014.7 -
27/05:30pm 23.8 - - - - NNW 35 41 19 22 1014.5 - -
27/05:00pm 23.9 - - - - NNW 33 37 18 20 1014.5 1014.5 -
27/04:30pm 24.0 - - - - NNW 26 32 14 17 1014.3 - -
27/04:00pm 24.0 - - - - N 30 33 16 18 1014.1 1014.1 -
27/03:30pm 23.9 - - - - N 28 33 15 18 1014.1 - -
27/03:00pm 24.4 - - - - N 28 32 15 17 1014.0 1014.0 -
27/02:30pm 24.7 - - - - N 28 32 15 17 1013.7 - -
27/02:00pm 24.9 - - - - N 24 30 13 16 1013.9 1013.9 -
27/01:30pm 24.9 - - - - N 22 28 12 15 1014.2 - -
27/01:00pm 24.9 - - - - N 26 32 14 17 1014.4 1014.4 -
27/12:30pm 25.1 - - - - N 28 33 15 18 1014.7 - -
27/12:00pm 24.6 - - - - N 26 33 14 18 1015.4 1015.3 -
27/11:30am 25.0 - - - - N 22 26 12 14 1016.1 - -
27/11:00am 25.1 - - - - N 20 28 11 15 1016.6 1016.6 -
27/10:30am 24.9 - - - - N 20 28 11 15 1017.0 - -
27/10:00am 24.9 - - - - N 22 30 12 16 1017.2 1017.1 -
27/09:30am 24.6 - - - - N 19 28 10 15 1017.3 - -
27/09:00am 24.3 - - - - N 19 24 10 13 1017.6 1017.6 -
27/08:30am 23.8 - - - - N 20 28 11 15 1017.3 - -
27/08:00am 23.3 - - - - NNE 20 32 11 17 1016.7 1016.7 -
27/07:30am 22.2 - - - - N 24 30 13 16 1017.1 - -
27/07:00am 22.0 - - - - N 26 32 14 17 1017.0 1017.0 -
27/06:30am 21.9 - - - - N 26 32 14 17 1016.8 - -
27/06:00am 21.8 - - - - NNE 19 26 10 14 1016.5 1016.5 -
27/05:30am 21.6 - - - - NE 20 26 11 14 1016.5 - -
27/05:00am 21.1 - - - - NNE 17 20 9 11 1016.4 1016.4 -
27/04:30am 20.8 - - - - NNE 17 22 9 12 1016.2 - -
27/04:00am 21.0 - - - - N 17 26 9 14 1016.2 1016.3 -
27/03:30am 21.1 - - - - N 19 22 10 12 1016.1 - -
27/03:00am 20.9 - - - - N 17 22 9 12 1016.3 1016.3 -
27/02:30am 20.8 - - - - NNE 19 22 10 12 1016.4 - -
27/02:00am 21.0 - - - - E 17 20 9 11 1016.5 1016.4 -
27/01:30am 20.9 - - - - ENE 19 26 10 14 1016.6 - -
27/01:00am 20.8 - - - - ENE 17 26 9 14 1016.7 1016.7 -
27/12:30am 20.6 - - - - ENE 15 20 8 11 1017.0 - -
27/12:00am 20.6 - - - - E 17 22 9 12 1017.3 1017.3 -
 
Date/Time
EST
Temp
°C
App
Temp
°C
Dew
Point
°C
Rel
Hum
%
Delta-T
°C
Wind Press
QNH
hPa
Press
MSL
hPa
Rain since
9am
mm
Dir  Spd
km/h
Gust
km/h
Spd
kts
Gust
kts
26/11:30pm 21.1 - - - - ENE 17 24 9 13 1017.4 - -
26/11:00pm 21.1 - - - - E 20 26 11 14 1017.4 1017.4 -
26/10:30pm 20.8 - - - - ENE 17 24 9 13 1017.6 - -
26/10:00pm 20.5 - - - - NE 17 22 9 12 1017.7 1017.7 -
26/09:30pm 20.8 - - - - NE 17 22 9 12 1017.9 - -
26/09:00pm 20.9 - - - - E 19 26 10 14 1018.0 1018.0 -

Other Formats:

Comma delimited format used in spreadsheet applications
http://www.bom.gov.au/fwo/IDQ60801/IDQ60801.94394.axf

JavaScript Object Notation format (JSON) in row-major order
http://www.bom.gov.au/fwo/IDQ60801/IDQ60801.94394.json